Hubbard, Ohio
Current Conditions -  °F | °C
As of 11:26 PM on Sunday 25 Jan 2015 (Local Time) from KYNG Reporting Station
Light Snow Light Snow  
Wind Chill:   Ceiling: 2100
Heat Index: 19°   Visibility: 1.5mi
Dew Point: 16°   Wind: 14mph
Humidity: 88%   Direction: 20°NNE
Pressure: 29.83"   Gusts: NA
Location:  41.16°N, 80.57°W
Report Text: KYNG 260426Z 02012KT 1 1/2SM -SN BR OVC021 M07/M09 A2983 RMK AO2 T10721089
Loading
Personal Weather Stations






























Interactive Weather Map New forecast layout! Learn more

10-Day Weather Forecast

Advertisements
Track Severe Weather on mobile